Time;durP1;ratioP1;P1;durP2;ratioP2;P2;SDS_P1;SDS_P2;PMS_P1;PMS_P2;Temp;Humidity;BMP_temperature;BMP_pressure;BME280_temperature;BME280_humidity;BME280_pressure;Samples;Min_cycle;Max_cycle;Signal;HPM_P1;HPM_P2
2022/04/20 00:01:25;;;;;;;;;;;10.10;57.20;;;;;;5015040;28;19909;-72
2022/04/20 00:03:50;;;;;;;;;;;10.30;56.60;;;;;;5015052;28;19921;-69
2022/04/20 00:06:16;;;;;;;;;;;10.30;56.40;;;;;;5014833;28;20296;-58
2022/04/20 00:08:42;;;;;;;;;;;10.40;56.10;;;;;;5015098;28;20384;-68
2022/04/20 00:11:10;;;;;;;;;;;10.30;56.30;;;;;;5014809;28;19913;-70
2022/04/20 00:13:36;;;;;;;;;;;10.30;55.70;;;;;;5015103;28;19910;-59
2022/04/20 00:16:01;;;;;;;;;;;10.30;55.70;;;;;;5014654;28;19909;-56
2022/04/20 00:18:27;;;;;;;;;;;10.40;55.50;;;;;;5014700;28;19951;-64
2022/04/20 00:20:52;;;;;;;;;;;10.60;55.00;;;;;;5014519;28;19971;-58
2022/04/20 00:23:18;;;;;;;;;;;10.60;54.00;;;;;;5014875;28;20052;-57
2022/04/20 00:25:44;;;;;;;;;;;10.70;53.70;;;;;;5015379;28;19909;-57
2022/04/20 00:28:09;;;;;;;;;;;10.60;53.30;;;;;;5014827;28;20012;-68
2022/04/20 00:30:35;;;;;;;;;;;10.70;53.40;;;;;;5014639;28;20003;-56
2022/04/20 00:33:00;;;;;;;;;;;10.60;53.10;;;;;;5014273;28;20357;-62
2022/04/20 00:35:27;;;;;;;;;;;10.60;53.20;;;;;;5014657;28;19909;-58
2022/04/20 00:37:52;;;;;;;;;;;10.70;53.30;;;;;;5014714;28;19910;-57
2022/04/20 00:40:18;;;;;;;;;;;10.70;52.70;;;;;;5014759;28;19910;-59
2022/04/20 00:42:43;;;;;;;;;;;10.80;52.40;;;;;;5014254;28;19917;-57
2022/04/20 00:45:10;;;;;;;;;;;10.80;52.30;;;;;;5014566;28;19921;-56
2022/04/20 00:47:36;;;;;;;;;;;10.70;52.80;;;;;;5014555;28;19913;-57
2022/04/20 00:50:02;;;;;;;;;;;10.70;53.00;;;;;;5014124;28;20362;-59
2022/04/20 00:52:28;;;;;;;;;;;10.60;53.60;;;;;;5014127;28;19925;-56
2022/04/20 00:54:53;;;;;;;;;;;10.40;54.30;;;;;;5014122;28;19909;-56
2022/04/20 00:57:19;;;;;;;;;;;10.40;54.80;;;;;;5014509;28;20412;-56
2022/04/20 00:59:45;;;;;;;;;;;10.20;55.40;;;;;;5014192;28;19910;-56
2022/04/20 01:02:11;;;;;;;;;;;10.10;55.70;;;;;;5013901;28;19919;-56
2022/04/20 01:04:38;;;;;;;;;;;10.20;55.70;;;;;;5013972;28;20277;-58
2022/04/20 01:07:11;;;;;;;;;;;10.30;55.30;;;;;;5013995;28;19916;-61
2022/04/20 01:09:37;;;;;;;;;;;10.20;55.10;;;;;;5014032;28;19913;-58
2022/04/20 01:12:02;;;;;;;;;;;10.20;54.80;;;;;;5013906;28;20348;-59
2022/04/20 01:14:28;;;;;;;;;;;10.10;55.00;;;;;;5013903;28;19960;-59
2022/04/20 01:16:54;;;;;;;;;;;10.20;55.20;;;;;;5013942;28;19909;-57
2022/04/20 01:19:19;;;;;;;;;;;10.20;55.10;;;;;;5013917;28;19913;-67
2022/04/20 01:21:45;;;;;;;;;;;10.20;54.90;;;;;;5013632;28;19929;-59
2022/04/20 01:24:11;;;;;;;;;;;10.30;55.10;;;;;;5015829;28;19910;-64
2022/04/20 01:26:38;;;;;;;;;;;10.20;55.00;;;;;;5018084;28;19916;-60
2022/04/20 01:29:05;;;;;;;;;;;10.30;55.00;;;;;;5017893;28;20000;-57
2022/04/20 01:31:30;;;;;;;;;;;10.20;55.00;;;;;;5017568;28;19933;-64
2022/04/20 01:33:56;;;;;;;;;;;10.20;54.80;;;;;;5017990;28;19914;-57
2022/04/20 01:36:22;;;;;;;;;;;10.30;54.70;;;;;;5017740;28;20415;-58
2022/04/20 01:38:47;;;;;;;;;;;10.30;54.60;;;;;;5017853;28;20281;-58
2022/04/20 01:41:14;;;;;;;;;;;10.20;55.10;;;;;;5017832;28;19996;-58
2022/04/20 01:43:40;;;;;;;;;;;10.20;54.70;;;;;;5017655;28;20388;-59
2022/04/20 01:46:05;;;;;;;;;;;10.20;55.00;;;;;;5017457;28;19913;-59
2022/04/20 01:48:31;;;;;;;;;;;10.20;55.00;;;;;;5017584;28;19910;-58
2022/04/20 01:53:40;;;;;;;;;;;10.30;54.70;;;;;;5017536;28;19921;-58
2022/04/20 01:56:06;;;;;;;;;;;10.40;54.50;;;;;;5017253;28;19913;-59
2022/04/20 01:58:33;;;;;;;;;;;10.40;54.20;;;;;;5017620;28;20055;-59
2022/04/20 02:00:59;;;;;;;;;;;10.50;54.10;;;;;;5017165;28;20020;-58
2022/04/20 02:03:25;;;;;;;;;;;10.30;54.50;;;;;;5017044;28;19948;-56
2022/04/20 02:05:50;;;;;;;;;;;10.40;54.00;;;;;;5017108;28;19935;-56
2022/04/20 02:08:17;;;;;;;;;;;10.40;54.10;;;;;;5017350;28;19913;-58
2022/04/20 02:10:43;;;;;;;;;;;10.30;54.20;;;;;;5017339;28;19916;-64
2022/04/20 02:13:08;;;;;;;;;;;10.20;54.60;;;;;;5016779;28;19917;-63
2022/04/20 02:15:34;;;;;;;;;;;10.10;54.80;;;;;;5016980;28;19920;-67
2022/04/20 02:17:59;;;;;;;;;;;10.10;55.20;;;;;;5017092;28;19918;-61
2022/04/20 02:20:25;;;;;;;;;;;10.10;55.70;;;;;;5017046;28;19929;-57
2022/04/20 02:22:51;;;;;;;;;;;10.00;55.40;;;;;;5016985;28;20353;-57
2022/04/20 02:25:16;;;;;;;;;;;10.00;55.60;;;;;;5016907;28;19909;-58
2022/04/20 02:27:43;;;;;;;;;;;10.00;55.50;;;;;;5016736;28;19956;-56
2022/04/20 02:30:09;;;;;;;;;;;10.00;55.90;;;;;;5016825;28;20008;-57
2022/04/20 02:32:34;;;;;;;;;;;9.90;56.00;;;;;;5016676;28;20362;-56
2022/04/20 02:35:00;;;;;;;;;;;9.80;56.20;;;;;;5016739;28;19971;-56
2022/04/20 02:37:25;;;;;;;;;;;9.80;56.40;;;;;;5016717;28;19917;-56
2022/04/20 02:39:51;;;;;;;;;;;9.70;56.50;;;;;;5016774;28;19945;-58
2022/04/20 02:42:17;;;;;;;;;;;9.80;56.40;;;;;;5016589;28;20012;-57
2022/04/20 02:44:43;;;;;;;;;;;9.70;56.40;;;;;;5016368;28;19918;-57
2022/04/20 02:47:08;;;;;;;;;;;9.60;57.00;;;;;;5016634;28;20353;-57
2022/04/20 02:49:35;;;;;;;;;;;9.50;57.00;;;;;;5016225;28;19916;-58
2022/04/20 02:52:00;;;;;;;;;;;9.60;57.00;;;;;;5016288;28;20008;-57
2022/04/20 02:54:27;;;;;;;;;;;9.60;56.70;;;;;;5016232;28;19996;-57
2022/04/20 02:56:53;;;;;;;;;;;9.60;56.60;;;;;;5016479;28;20337;-57
2022/04/20 02:59:18;;;;;;;;;;;9.60;56.70;;;;;;5016052;28;19949;-57
2022/04/20 03:01:44;;;;;;;;;;;9.60;56.90;;;;;;5014870;28;19909;-57
2022/04/20 03:04:10;;;;;;;;;;;9.60;56.60;;;;;;5016347;28;19913;-58
2022/04/20 03:06:36;;;;;;;;;;;9.50;56.50;;;;;;5016051;28;19942;-57
2022/04/20 03:09:02;;;;;;;;;;;9.60;56.40;;;;;;5016272;28;19909;-58
2022/04/20 03:11:28;;;;;;;;;;;9.70;56.30;;;;;;5016100;28;19965;-56
2022/04/20 03:13:54;;;;;;;;;;;9.60;56.30;;;;;;5015995;28;19910;-57
2022/04/20 03:16:19;;;;;;;;;;;9.40;56.60;;;;;;5016063;28;20012;-57
2022/04/20 03:18:45;;;;;;;;;;;9.40;56.80;;;;;;5015887;28;19963;-57
2022/04/20 03:21:10;;;;;;;;;;;9.50;56.60;;;;;;5015723;28;19914;-58
2022/04/20 03:23:36;;;;;;;;;;;9.50;56.60;;;;;;5015867;28;19952;-57
2022/04/20 03:26:03;;;;;;;;;;;9.50;56.10;;;;;;5015805;28;19914;-59
2022/04/20 03:28:29;;;;;;;;;;;9.50;55.90;;;;;;5015650;28;19932;-56
2022/04/20 03:30:54;;;;;;;;;;;9.60;55.50;;;;;;5016020;28;20365;-58
2022/04/20 03:33:21;;;;;;;;;;;9.50;55.20;;;;;;5015761;28;20008;-57
2022/04/20 03:35:47;;;;;;;;;;;9.60;55.10;;;;;;5015635;28;19964;-57
2022/04/20 03:38:12;;;;;;;;;;;9.50;55.00;;;;;;5015593;28;20329;-57
2022/04/20 03:40:38;;;;;;;;;;;9.50;54.90;;;;;;5015673;28;19916;-57
2022/04/20 03:43:03;;;;;;;;;;;9.60;54.70;;;;;;5015233;28;19909;-58
2022/04/20 03:45:29;;;;;;;;;;;9.60;54.30;;;;;;5015645;28;19987;-57
2022/04/20 03:47:54;;;;;;;;;;;9.50;54.20;;;;;;5014794;28;20366;-58
2022/04/20 03:50:20;;;;;;;;;;;9.50;53.90;;;;;;5015290;28;19910;-56
2022/04/20 03:52:46;;;;;;;;;;;9.70;53.60;;;;;;5014951;28;20008;-56
2022/04/20 03:55:11;;;;;;;;;;;9.80;52.90;;;;;;5015263;28;19914;-57
2022/04/20 03:57:37;;;;;;;;;;;9.80;52.40;;;;;;5015129;28;19916;-57
2022/04/20 04:00:04;;;;;;;;;;;9.70;52.50;;;;;;5015055;28;19909;-57
2022/04/20 04:02:30;;;;;;;;;;;9.70;52.50;;;;;;5014992;28;19917;-58
2022/04/20 04:04:55;;;;;;;;;;;9.90;52.20;;;;;;5015014;28;20357;-58
2022/04/20 04:07:21;;;;;;;;;;;10.00;51.90;;;;;;5015175;28;19915;-58
2022/04/20 04:09:47;;;;;;;;;;;10.00;51.50;;;;;;5014756;28;19910;-58
2022/04/20 04:12:12;;;;;;;;;;;9.90;51.40;;;;;;5014818;28;19917;-57
2022/04/20 04:14:38;;;;;;;;;;;9.80;51.60;;;;;;5015371;28;19913;-58
2022/04/20 04:17:04;;;;;;;;;;;9.80;51.80;;;;;;5014977;28;19909;-58
2022/04/20 04:19:30;;;;;;;;;;;9.60;51.90;;;;;;5014733;28;19960;-71
2022/04/20 04:21:56;;;;;;;;;;;9.50;52.40;;;;;;5014586;28;20332;-69
2022/04/20 04:24:37;;;;;;;;;;;9.50;52.60;;;;;;5014959;28;20308;-73
2022/04/20 04:27:06;;;;;;;;;;;9.40;52.50;;;;;;5014883;28;20290;-57
2022/04/20 04:29:32;;;;;;;;;;;9.50;52.20;;;;;;5013147;28;19909;-59
2022/04/20 04:31:58;;;;;;;;;;;9.50;52.00;;;;;;5014308;28;20324;-58
2022/04/20 04:34:24;;;;;;;;;;;9.40;51.90;;;;;;5014710;28;19963;-69
2022/04/20 04:36:51;;;;;;;;;;;9.40;51.80;;;;;;5014395;28;20004;-72
2022/04/20 04:39:18;;;;;;;;;;;9.40;51.50;;;;;;5014305;28;19961;-59
2022/04/20 04:41:46;;;;;;;;;;;9.40;51.30;;;;;;5014516;28;20051;-58
2022/04/20 04:44:11;;;;;;;;;;;9.40;50.90;;;;;;5014319;28;20016;-65
2022/04/20 04:49:21;;;;;;;;;;;9.50;50.90;;;;;;5014266;28;20273;-70
2022/04/20 04:51:46;;;;;;;;;;;9.40;51.20;;;;;;5014211;28;19913;-59
2022/04/20 04:54:12;;;;;;;;;;;9.40;51.20;;;;;;5014236;28;20365;-65
2022/04/20 04:56:37;;;;;;;;;;;9.40;50.60;;;;;;5014062;28;19925;-58
2022/04/20 04:59:03;;;;;;;;;;;9.40;50.80;;;;;;5013389;28;19909;-59
2022/04/20 05:01:29;;;;;;;;;;;9.40;50.40;;;;;;5013978;28;19909;-62
2022/04/20 05:03:54;;;;;;;;;;;9.40;49.80;;;;;;5013878;28;19937;-58
2022/04/20 05:06:20;;;;;;;;;;;9.40;49.90;;;;;;5014097;28;19920;-67
2022/04/20 05:08:46;;;;;;;;;;;9.50;49.50;;;;;;5013944;28;19909;-59
2022/04/20 05:11:11;;;;;;;;;;;9.50;49.90;;;;;;5013885;28;20001;-58
2022/04/20 05:13:37;;;;;;;;;;;9.50;49.80;;;;;;5013921;28;19988;-58
2022/04/20 05:16:02;;;;;;;;;;;9.50;50.00;;;;;;5014247;28;20420;-59
2022/04/20 05:18:28;;;;;;;;;;;9.60;50.10;;;;;;5013967;28;19956;-57
2022/04/20 05:20:53;;;;;;;;;;;9.50;50.30;;;;;;5013637;28;20437;-59
2022/04/20 05:23:19;;;;;;;;;;;9.50;50.40;;;;;;5013661;28;19925;-57
2022/04/20 05:25:45;;;;;;;;;;;9.50;50.20;;;;;;5014129;28;19909;-57
2022/04/20 05:28:10;;;;;;;;;;;9.50;50.20;;;;;;5013851;28;19949;-56
2022/04/20 05:30:36;;;;;;;;;;;9.50;50.70;;;;;;5013735;28;19917;-56
2022/04/20 05:33:02;;;;;;;;;;;9.50;51.00;;;;;;5013559;28;19918;-56
2022/04/20 05:35:28;;;;;;;;;;;9.50;51.10;;;;;;5013639;28;19917;-58
2022/04/20 05:43:22;;;;;;;;;;;9.80;51.10;;;;;;5013303;28;20441;-56
2022/04/20 05:45:48;;;;;;;;;;;9.80;50.30;;;;;;5013623;28;19937;-60
2022/04/20 05:48:14;;;;;;;;;;;9.80;50.00;;;;;;5013369;28;20401;-56
2022/04/20 05:50:40;;;;;;;;;;;9.70;50.60;;;;;;5013634;28;19984;-56
2022/04/20 05:53:05;;;;;;;;;;;9.70;50.60;;;;;;5011865;28;19917;-57
2022/04/20 05:55:31;;;;;;;;;;;9.60;50.60;;;;;;5013353;28;19909;-55
2022/04/20 05:57:56;;;;;;;;;;;9.90;52.20;;;;;;5013425;28;19909;-57
2022/04/20 06:00:22;;;;;;;;;;;10.10;51.00;;;;;;5013309;28;19909;-54
2022/04/20 06:02:48;;;;;;;;;;;10.70;51.80;;;;;;5013295;28;19945;-55
2022/04/20 06:05:13;;;;;;;;;;;11.30;50.60;;;;;;5013247;28;19909;-56
2022/04/20 06:07:39;;;;;;;;;;;11.30;47.90;;;;;;5013569;28;19916;-56
2022/04/20 06:10:05;;;;;;;;;;;11.60;46.10;;;;;;5014955;28;20016;-55
2022/04/20 06:12:32;;;;;;;;;;;11.70;46.20;;;;;;5016718;28;19918;-55
2022/04/20 06:14:58;;;;;;;;;;;11.80;46.30;;;;;;5017619;28;20396;-56
2022/04/20 06:17:24;;;;;;;;;;;12.00;44.30;;;;;;5016965;28;19931;-56
2022/04/20 06:19:49;;;;;;;;;;;12.20;45.20;;;;;;5016965;28;20361;-58
2022/04/20 06:22:15;;;;;;;;;;;12.40;45.20;;;;;;5016908;28;20385;-55
2022/04/20 06:24:40;;;;;;;;;;;12.60;44.10;;;;;;5016945;28;19909;-56
2022/04/20 06:27:07;;;;;;;;;;;12.80;44.70;;;;;;5016780;28;20281;-57
2022/04/20 06:29:34;;;;;;;;;;;13.10;42.70;;;;;;5016594;28;19916;-56
2022/04/20 06:32:01;;;;;;;;;;;13.20;41.80;;;;;;5016272;28;19917;-56
2022/04/20 06:34:26;;;;;;;;;;;13.70;42.00;;;;;;5016295;28;19909;-59
2022/04/20 06:36:52;;;;;;;;;;;13.50;39.90;;;;;;5016985;28;19916;-56
2022/04/20 06:39:17;;;;;;;;;;;13.50;39.80;;;;;;5016523;28;20273;-56
2022/04/20 06:41:43;;;;;;;;;;;13.90;41.90;;;;;;5014422;28;19909;-57
2022/04/20 06:44:09;;;;;;;;;;;14.10;39.80;;;;;;5015482;28;19920;-58
2022/04/20 06:46:34;;;;;;;;;;;14.20;40.20;;;;;;5015763;28;19916;-57
2022/04/20 06:49:00;;;;;;;;;;;14.20;38.20;;;;;;5015896;28;19920;-56
2022/04/20 06:51:26;;;;;;;;;;;13.90;38.50;;;;;;5015655;28;19921;-58
2022/04/20 06:59:20;;;;;;;;;;;13.40;40.10;;;;;;5015288;28;19919;-57
2022/04/20 07:01:46;;;;;;;;;;;13.50;38.70;;;;;;5015168;28;20004;-56
2022/04/20 07:04:12;;;;;;;;;;;13.70;39.40;;;;;;5015241;28;19909;-56
2022/04/20 07:06:37;;;;;;;;;;;13.70;38.90;;;;;;5015328;28;19936;-57
2022/04/20 07:09:03;;;;;;;;;;;13.80;38.90;;;;;;5015668;28;19910;-58
2022/04/20 07:11:28;;;;;;;;;;;13.70;38.60;;;;;;5015526;28;19920;-56
2022/04/20 07:13:55;;;;;;;;;;;13.70;39.20;;;;;;5015831;28;19921;-56
2022/04/20 07:16:20;;;;;;;;;;;13.80;39.30;;;;;;5016287;28;19913;-57
2022/04/20 07:18:46;;;;;;;;;;;13.80;37.80;;;;;;5015998;28;19916;-57
2022/04/20 07:21:11;;;;;;;;;;;13.70;38.10;;;;;;5014403;28;20390;-57
2022/04/20 07:23:37;;;;;;;;;;;13.70;38.60;;;;;;5015715;28;19910;-57
2022/04/20 07:26:02;;;;;;;;;;;13.70;38.70;;;;;;5012342;28;19913;-57
2022/04/20 07:28:28;;;;;;;;;;;13.80;38.90;;;;;;5004105;28;19910;-57
2022/04/20 07:30:54;;;;;;;;;;;13.80;39.20;;;;;;5005669;28;19993;-57
2022/04/20 07:33:19;;;;;;;;;;;13.60;38.10;;;;;;5005476;28;19921;-56
2022/04/20 07:35:45;;;;;;;;;;;13.50;38.60;;;;;;5014940;28;19932;-56
2022/04/20 07:38:11;;;;;;;;;;;13.60;39.00;;;;;;5008193;28;20356;-54
2022/04/20 07:40:37;;;;;;;;;;;13.60;39.20;;;;;;5014935;28;19913;-55
2022/04/20 07:43:02;;;;;;;;;;;13.70;39.30;;;;;;5014818;28;19909;-56
2022/04/20 07:45:28;;;;;;;;;;;13.90;39.00;;;;;;5014722;28;19914;-56
2022/04/20 07:47:55;;;;;;;;;;;14.00;38.20;;;;;;5014714;28;19914;-61
2022/04/20 07:50:23;;;;;;;;;;;14.10;38.30;;;;;;5014864;28;20384;-54
2022/04/20 07:52:50;;;;;;;;;;;14.30;37.70;;;;;;5014809;28;20468;-62
2022/04/20 07:55:17;;;;;;;;;;;14.30;37.80;;;;;;5015007;28;19933;-57
2022/04/20 07:57:45;;;;;;;;;;;14.30;39.10;;;;;;5015209;28;19960;-56
2022/04/20 08:00:12;;;;;;;;;;;14.40;38.10;;;;;;5015054;28;19916;-62
2022/04/20 08:02:37;;;;;;;;;;;14.30;37.50;;;;;;5014815;28;19916;-56
2022/04/20 08:05:03;;;;;;;;;;;14.00;38.00;;;;;;5014881;28;20293;-57
2022/04/20 08:07:28;;;;;;;;;;;14.40;38.50;;;;;;5014876;28;19949;-61
2022/04/20 08:09:54;;;;;;;;;;;14.20;37.00;;;;;;5014946;28;19909;-66
2022/04/20 08:12:20;;;;;;;;;;;14.10;37.80;;;;;;5015271;28;19918;-57
2022/04/20 08:14:45;;;;;;;;;;;13.80;38.20;;;;;;5015136;28;19914;-56
2022/04/20 08:17:11;;;;;;;;;;;13.80;38.70;;;;;;5014743;28;19992;-57
2022/04/20 08:19:37;;;;;;;;;;;14.00;38.60;;;;;;5014557;28;19963;-68
2022/04/20 08:22:04;;;;;;;;;;;13.90;38.60;;;;;;5014442;28;19922;-57
2022/04/20 08:24:29;;;;;;;;;;;14.10;39.30;;;;;;5014286;28;19963;-60
2022/04/20 08:26:55;;;;;;;;;;;14.40;38.20;;;;;;5014240;28;20016;-60
2022/04/20 08:29:21;;;;;;;;;;;14.30;37.90;;;;;;5013457;28;19909;-57
2022/04/20 08:31:46;;;;;;;;;;;14.50;37.70;;;;;;5013952;28;20262;-56
2022/04/20 08:34:12;;;;;;;;;;;14.40;38.10;;;;;;5014341;28;19909;-59
2022/04/20 08:36:37;;;;;;;;;;;14.30;38.00;;;;;;5013025;28;19916;-56
2022/04/20 08:39:03;;;;;;;;;;;14.40;39.00;;;;;;5014438;28;19972;-56
2022/04/20 08:41:29;;;;;;;;;;;14.50;38.30;;;;;;5012146;28;20396;-56
2022/04/20 08:43:55;;;;;;;;;;;14.60;38.10;;;;;;5013522;28;19910;-55
2022/04/20 08:46:22;;;;;;;;;;;14.60;37.90;;;;;;5013953;28;20281;-62
2022/04/20 08:48:49;;;;;;;;;;;14.50;37.90;;;;;;5013588;28;19910;-57
2022/04/20 08:51:15;;;;;;;;;;;14.80;39.10;;;;;;5012419;28;19953;-56
2022/04/20 08:53:40;;;;;;;;;;;15.00;38.40;;;;;;5013908;28;19964;-56
2022/04/20 08:58:50;;;;;;;;;;;15.20;38.00;;;;;;5013957;28;19960;-58
2022/04/20 09:01:17;;;;;;;;;;;15.40;38.80;;;;;;5014125;28;19909;-58
2022/04/20 09:03:46;;;;;;;;;;;15.40;38.20;;;;;;5014020;28;19920;-56
2022/04/20 09:06:15;;;;;;;;;;;15.30;37.60;;;;;;5013770;28;19910;-61
2022/04/20 09:08:41;;;;;;;;;;;15.10;37.20;;;;;;5013916;28;20342;-57
2022/04/20 09:11:07;;;;;;;;;;;14.80;37.80;;;;;;5013852;28;20012;-62
2022/04/20 09:13:35;;;;;;;;;;;14.80;37.70;;;;;;5012431;28;20012;-56
2022/04/20 09:16:07;;;;;;;;;;;14.80;36.90;;;;;;5014225;28;19967;-55
2022/04/20 09:18:33;;;;;;;;;;;14.70;37.80;;;;;;5013795;28;19917;-58
2022/04/20 09:21:09;;;;;;;;;;;14.90;38.00;;;;;;5013651;28;20257;-57
2022/04/20 09:23:34;;;;;;;;;;;14.90;37.30;;;;;;5012605;28;19918;-56
2022/04/20 09:26:10;;;;;;;;;;;15.10;37.70;;;;;;5014143;28;20020;-58
2022/04/20 09:28:40;;;;;;;;;;;15.30;37.50;;;;;;5013999;28;20012;-56
2022/04/20 09:31:07;;;;;;;;;;;15.40;37.50;;;;;;5013730;28;19910;-57
2022/04/20 09:33:42;;;;;;;;;;;15.60;37.30;;;;;;5013767;28;20321;-59
2022/04/20 09:36:08;;;;;;;;;;;15.80;36.50;;;;;;5013724;28;19910;-56
2022/04/20 09:38:37;;;;;;;;;;;15.60;36.40;;;;;;5013678;28;19910;-55
2022/04/20 09:41:09;;;;;;;;;;;15.40;35.90;;;;;;5013525;28;19955;-59
2022/04/20 09:43:35;;;;;;;;;;;15.10;35.70;;;;;;5013473;28;19933;-57
2022/04/20 09:46:01;;;;;;;;;;;15.10;37.00;;;;;;5016512;28;19918;-59
2022/04/20 09:51:13;;;;;;;;;;;15.20;37.80;;;;;;5017736;28;20075;-56
2022/04/20 09:53:44;;;;;;;;;;;15.20;35.90;;;;;;5017404;28;20383;-57
2022/04/20 09:56:19;;;;;;;;;;;15.30;36.80;;;;;;5016236;28;19910;-55
2022/04/20 09:58:44;;;;;;;;;;;15.50;39.00;;;;;;5017217;28;20380;-56
2022/04/20 10:01:31;;;;;;;;;;;15.60;35.50;;;;;;5017464;28;19913;-57
2022/04/20 10:03:57;;;;;;;;;;;15.10;35.70;;;;;;5017121;28;20254;-63
2022/04/20 10:06:23;;;;;;;;;;;15.00;37.20;;;;;;5017348;28;19910;-57
2022/04/20 10:08:49;;;;;;;;;;;15.00;37.40;;;;;;5017025;28;19917;-58
2022/04/20 10:11:15;;;;;;;;;;;15.10;37.00;;;;;;5016765;28;19917;-56
2022/04/20 10:13:41;;;;;;;;;;;15.20;37.00;;;;;;5017016;28;19957;-57
2022/04/20 10:16:09;;;;;;;;;;;15.30;37.50;;;;;;5017365;28;20007;-58
2022/04/20 10:18:37;;;;;;;;;;;15.50;36.70;;;;;;5017017;28;20052;-57
2022/04/20 10:21:03;;;;;;;;;;;15.70;38.20;;;;;;5017129;28;19924;-65
2022/04/20 10:23:29;;;;;;;;;;;15.50;34.80;;;;;;5017314;28;19914;-61
2022/04/20 10:25:55;;;;;;;;;;;15.60;35.80;;;;;;5016926;28;19910;-65
2022/04/20 10:28:41;;;;;;;;;;;15.30;35.50;;;;;;5016899;28;19983;-57
2022/04/20 10:31:12;;;;;;;;;;;15.30;35.70;;;;;;5005573;28;19909;-67
2022/04/20 10:33:40;;;;;;;;;;;15.30;36.80;;;;;;5016481;28;19921;-60
2022/04/20 10:36:09;;;;;;;;;;;15.20;36.40;;;;;;5016873;28;19914;-62
2022/04/20 10:38:34;;;;;;;;;;;15.00;36.60;;;;;;5016784;28;20247;-67
2022/04/20 10:41:07;;;;;;;;;;;15.20;37.00;;;;;;5016719;28;19917;-68
2022/04/20 10:43:34;;;;;;;;;;;15.20;36.90;;;;;;5016377;28;19916;-64
2022/04/20 10:46:05;;;;;;;;;;;15.40;37.20;;;;;;5016858;28;20105;-61
2022/04/20 10:48:45;;;;;;;;;;;15.80;37.10;;;;;;5016210;28;19917;-61
2022/04/20 10:51:12;;;;;;;;;;;15.80;36.20;;;;;;5016747;28;20285;-63
2022/04/20 10:53:38;;;;;;;;;;;15.80;36.30;;;;;;5016357;28;19918;-65
2022/04/20 10:56:03;;;;;;;;;;;15.80;35.90;;;;;;5015206;28;20277;-61
2022/04/20 10:58:29;;;;;;;;;;;16.00;36.10;;;;;;5016132;28;19916;-62
2022/04/20 11:01:08;;;;;;;;;;;16.10;36.20;;;;;;5016199;28;20008;-61
2022/04/20 11:03:53;;;;;;;;;;;16.30;35.50;;;;;;5016316;28;19910;-57
2022/04/20 11:06:19;;;;;;;;;;;16.70;34.40;;;;;;5015996;28;19909;-57
2022/04/20 11:08:45;;;;;;;;;;;16.70;34.10;;;;;;5016298;28;20409;-63
2022/04/20 11:19:49;;;;;;;;;;;16.30;35.20;;;;;;5016106;28;20048;-66
2022/04/20 11:22:15;;;;;;;;;;;16.50;34.40;;;;;;5015505;28;20428;-62
2022/04/20 11:24:40;;;;;;;;;;;16.50;33.10;;;;;;5015699;28;19913;-67
2022/04/20 11:27:07;;;;;;;;;;;16.70;33.10;;;;;;5015950;28;19909;-59
2022/04/20 11:29:33;;;;;;;;;;;16.70;33.40;;;;;;5015598;28;19910;-58
2022/04/20 11:32:07;;;;;;;;;;;16.70;34.80;;;;;;5015541;28;19920;-64
2022/04/20 11:34:33;;;;;;;;;;;16.80;33.80;;;;;;5015400;28;20327;-58
2022/04/20 11:37:04;;;;;;;;;;;17.10;33.00;;;;;;5015382;28;19909;-62
2022/04/20 11:39:30;;;;;;;;;;;17.30;33.30;;;;;;5015627;28;19910;-57
2022/04/20 11:41:57;;;;;;;;;;;17.40;33.50;;;;;;5015223;28;19910;-62
2022/04/20 11:44:26;;;;;;;;;;;17.30;32.60;;;;;;5015328;28;19916;-60
2022/04/20 11:47:01;;;;;;;;;;;17.40;32.70;;;;;;5015501;28;19909;-57
2022/04/20 11:49:38;;;;;;;;;;;17.30;33.00;;;;;;5014319;28;19909;-55
2022/04/20 11:52:06;;;;;;;;;;;17.20;32.90;;;;;;5015122;28;19917;-61
2022/04/20 11:54:33;;;;;;;;;;;17.10;33.30;;;;;;5015569;28;19910;-57
2022/04/20 11:56:58;;;;;;;;;;;17.30;34.10;;;;;;5015021;28;19932;-56
2022/04/20 11:59:28;;;;;;;;;;;17.40;32.80;;;;;;5015304;28;20346;-54
2022/04/20 12:01:54;;;;;;;;;;;17.40;32.40;;;;;;5014987;28;20358;-68
2022/04/20 12:04:28;;;;;;;;;;;17.20;32.20;;;;;;5013396;28;19964;-57
2022/04/20 12:07:00;;;;;;;;;;;17.30;36.10;;;;;;4994915;28;19925;-55
2022/04/20 12:09:26;;;;;;;;;;;17.50;33.00;;;;;;4994953;28;19910;-64
2022/04/20 12:11:53;;;;;;;;;;;17.50;33.20;;;;;;4994825;28;19918;-65
2022/04/20 12:14:19;;;;;;;;;;;17.60;32.70;;;;;;4995056;28;19917;-64
2022/04/20 12:16:45;;;;;;;;;;;17.40;33.00;;;;;;4994735;28;20361;-54
2022/04/20 12:19:11;;;;;;;;;;;17.50;32.10;;;;;;4994790;28;20369;-58
2022/04/20 12:21:41;;;;;;;;;;;17.60;32.90;;;;;;4994976;28;19972;-63
2022/04/20 12:24:12;;;;;;;;;;;17.80;32.80;;;;;;5013643;28;19914;-65
2022/04/20 12:26:41;;;;;;;;;;;18.10;37.20;;;;;;5012283;28;19914;-57
2022/04/20 12:29:08;;;;;;;;;;;18.00;32.30;;;;;;5012046;28;19917;-61
2022/04/20 12:31:37;;;;;;;;;;;17.90;32.60;;;;;;5012703;28;19972;-57
2022/04/20 12:34:04;;;;;;;;;;;17.90;33.40;;;;;;5014118;28;19914;-61
2022/04/20 12:36:31;;;;;;;;;;;17.40;31.40;;;;;;5013912;28;19920;-63
2022/04/20 12:38:57;;;;;;;;;;;17.10;31.90;;;;;;5013825;28;20263;-63
2022/04/20 12:41:45;;;;;;;;;;;17.10;32.10;;;;;;5013901;28;19909;-56
2022/04/20 12:44:31;;;;;;;;;;;17.20;32.40;;;;;;5013792;28;19914;-64
2022/04/20 12:46:57;;;;;;;;;;;17.50;34.00;;;;;;5013890;28;20327;-64
2022/04/20 12:49:26;;;;;;;;;;;17.90;32.90;;;;;;5013607;28;19960;-56
2022/04/20 12:51:52;;;;;;;;;;;17.60;31.50;;;;;;5013740;28;20401;-63
2022/04/20 12:54:24;;;;;;;;;;;17.30;31.70;;;;;;5013714;28;19909;-68
2022/04/20 13:02:18;;;;;;;;;;;17.90;29.10;;;;;;5013566;28;20388;-65
2022/04/20 13:04:47;;;;;;;;;;;17.70;30.60;;;;;;5013749;28;19960;-64
2022/04/20 13:07:13;;;;;;;;;;;17.30;29.70;;;;;;5013787;28;19916;-63
2022/04/20 13:09:38;;;;;;;;;;;17.00;30.00;;;;;;5013341;28;20001;-61
2022/04/20 13:12:04;;;;;;;;;;;16.90;30.30;;;;;;5013516;28;20017;-59
2022/04/20 13:14:31;;;;;;;;;;;16.90;30.10;;;;;;5014039;28;19917;-65
2022/04/20 13:16:57;;;;;;;;;;;17.30;32.30;;;;;;5013989;28;20282;-58
2022/04/20 13:19:22;;;;;;;;;;;17.40;30.10;;;;;;5013192;28;19917;-62
2022/04/20 13:21:48;;;;;;;;;;;17.20;31.00;;;;;;5012262;28;19933;-58
2022/04/20 13:27:53;;;;;;;;;;;17.50;30.60;;;;;;5013874;28;19917;-59
2022/04/20 13:29:45;;;;;;;;;;;17.80;29.10;;;;;;5013718;28;19936;-59
2022/04/20 13:32:11;;;;;;;;;;;17.80;29.90;;;;;;5013647;28;19917;-58
2022/04/20 13:34:36;;;;;;;;;;;18.00;30.20;;;;;;5013396;28;19924;-72
2022/04/20 13:37:02;;;;;;;;;;;18.40;29.10;;;;;;5013246;28;19910;-58
2022/04/20 13:39:28;;;;;;;;;;;18.60;29.50;;;;;;5012886;28;20384;-56
2022/04/20 13:41:54;;;;;;;;;;;18.50;30.60;;;;;;5012531;28;20384;-58
2022/04/20 13:44:20;;;;;;;;;;;18.50;30.90;;;;;;5010313;28;19913;-59
2022/04/20 13:46:45;;;;;;;;;;;18.40;28.70;;;;;;5011675;28;19952;-71
2022/04/20 13:49:12;;;;;;;;;;;18.40;33.80;;;;;;5012743;28;19932;-59
2022/04/20 13:51:38;;;;;;;;;;;18.50;35.40;;;;;;5011211;28;19910;-61
2022/04/20 13:54:04;;;;;;;;;;;18.60;35.30;;;;;;5002348;28;19928;-67
2022/04/20 13:56:29;;;;;;;;;;;17.60;33.60;;;;;;5011977;28;19917;-73
2022/04/20 13:58:55;;;;;;;;;;;16.90;34.20;;;;;;5012019;28;19917;-63
2022/04/20 14:01:20;;;;;;;;;;;16.50;34.30;;;;;;5012541;28;19913;-62
2022/04/20 14:03:46;;;;;;;;;;;16.30;36.50;;;;;;5012796;28;19910;-57
2022/04/20 14:06:14;;;;;;;;;;;16.00;38.90;;;;;;5012790;28;20391;-69
2022/04/20 14:08:40;;;;;;;;;;;16.10;37.90;;;;;;5012815;28;19910;-68
2022/04/20 14:11:05;;;;;;;;;;;16.20;38.60;;;;;;5003062;28;19909;-56
2022/04/20 14:13:31;;;;;;;;;;;16.50;40.50;;;;;;5004583;28;20282;-68
2022/04/20 14:15:57;;;;;;;;;;;16.40;41.50;;;;;;5007914;28;19921;-63
2022/04/20 14:18:23;;;;;;;;;;;16.70;40.00;;;;;;5023828;28;20392;-66
2022/04/20 14:20:49;;;;;;;;;;;16.80;44.30;;;;;;5021555;28;19910;-64
2022/04/20 14:23:15;;;;;;;;;;;16.70;45.70;;;;;;5022777;28;20343;-62
2022/04/20 14:33:53;;;;;;;;;;;15.80;49.60;;;;;;5022535;28;19924;-62
2022/04/20 14:36:18;;;;;;;;;;;15.30;50.20;;;;;;5026741;28;19913;-75
2022/04/20 14:38:44;;;;;;;;;;;15.50;51.60;;;;;;5019543;28;19992;-69
2022/04/20 14:41:13;;;;;;;;;;;15.30;51.80;;;;;;4999400;28;19910;-53
2022/04/20 14:43:38;;;;;;;;;;;15.30;52.40;;;;;;5011908;28;20309;-52
2022/04/20 14:46:04;;;;;;;;;;;15.50;53.50;;;;;;4999826;28;19964;-53
2022/04/20 14:48:29;;;;;;;;;;;15.50;54.00;;;;;;5003717;28;19937;-53
2022/04/20 14:50:55;;;;;;;;;;;15.60;54.50;;;;;;4999060;28;19964;-53
2022/04/20 14:53:21;;;;;;;;;;;15.60;54.70;;;;;;5015539;28;20392;-61
2022/04/20 14:55:49;;;;;;;;;;;15.60;54.10;;;;;;5015912;28;19913;-53
2022/04/20 14:58:15;;;;;;;;;;;15.50;54.20;;;;;;5015543;28;19917;-55
2022/04/20 15:00:40;;;;;;;;;;;15.40;53.80;;;;;;5006264;28;19913;-58
2022/04/20 15:03:06;;;;;;;;;;;15.50;54.40;;;;;;5005864;28;20354;-55
2022/04/20 15:05:32;;;;;;;;;;;15.70;54.90;;;;;;5002440;28;19914;-58